sensor_id;sensor_type;location;lat;lon;timestamp;temperature;humidity
61979;DHT22;47938;48.176;16.414;2022-10-31T00:01:22;11.70;99.90
61979;DHT22;47938;48.176;16.414;2022-10-31T00:03:48;11.70;99.90
61979;DHT22;47938;48.176;16.414;2022-10-31T00:06:15;11.70;99.90
61979;DHT22;47938;48.176;16.414;2022-10-31T00:08:41;11.70;99.90
61979;DHT22;47938;48.176;16.414;2022-10-31T00:11:10;11.70;99.90
61979;DHT22;47938;48.176;16.414;2022-10-31T00:13:36;11.70;99.90
61979;DHT22;47938;48.176;16.414;2022-10-31T00:16:02;11.70;99.90
61979;DHT22;47938;48.176;16.414;2022-10-31T00:18:27;11.70;99.90
61979;DHT22;47938;48.176;16.414;2022-10-31T00:21:01;11.70;99.90
61979;DHT22;47938;48.176;16.414;2022-10-31T00:23:26;11.70;99.90
61979;DHT22;47938;48.176;16.414;2022-10-31T00:25:52;11.70;99.90
61979;DHT22;47938;48.176;16.414;2022-10-31T00:28:18;11.70;99.90
61979;DHT22;47938;48.176;16.414;2022-10-31T00:30:43;11.70;99.90
61979;DHT22;47938;48.176;16.414;2022-10-31T00:33:09;11.70;99.90
61979;DHT22;47938;48.176;16.414;2022-10-31T00:35:34;11.70;99.90
61979;DHT22;47938;48.176;16.414;2022-10-31T00:38:00;11.70;99.90
61979;DHT22;47938;48.176;16.414;2022-10-31T00:40:25;11.70;99.90
61979;DHT22;47938;48.176;16.414;2022-10-31T00:42:51;11.70;99.90
61979;DHT22;47938;48.176;16.414;2022-10-31T00:45:17;11.70;99.90
61979;DHT22;47938;48.176;16.414;2022-10-31T00:47:42;11.70;99.90
61979;DHT22;47938;48.176;16.414;2022-10-31T00:50:08;11.70;99.90
61979;DHT22;47938;48.176;16.414;2022-10-31T00:52:34;11.70;99.90
61979;DHT22;47938;48.176;16.414;2022-10-31T00:55:00;11.70;99.90
61979;DHT22;47938;48.176;16.414;2022-10-31T00:57:25;11.70;99.90
61979;DHT22;47938;48.176;16.414;2022-10-31T00:59:51;11.70;99.90
61979;DHT22;47938;48.176;16.414;2022-10-31T01:02:17;11.70;99.90
61979;DHT22;47938;48.176;16.414;2022-10-31T01:04:42;11.70;99.90
61979;DHT22;47938;48.176;16.414;2022-10-31T01:07:08;11.70;99.90
61979;DHT22;47938;48.176;16.414;2022-10-31T01:09:33;11.70;99.90
61979;DHT22;47938;48.176;16.414;2022-10-31T01:11:59;11.70;99.90
61979;DHT22;47938;48.176;16.414;2022-10-31T01:14:25;11.70;99.90
61979;DHT22;47938;48.176;16.414;2022-10-31T01:16:50;11.70;99.90
61979;DHT22;47938;48.176;16.414;2022-10-31T01:19:16;11.70;99.90
61979;DHT22;47938;48.176;16.414;2022-10-31T01:21:41;11.70;99.90
61979;DHT22;47938;48.176;16.414;2022-10-31T01:24:08;11.70;99.90
61979;DHT22;47938;48.176;16.414;2022-10-31T01:26:34;11.70;99.90
61979;DHT22;47938;48.176;16.414;2022-10-31T01:29:04;11.60;99.90
61979;DHT22;47938;48.176;16.414;2022-10-31T01:31:33;11.60;99.90
61979;DHT22;47938;48.176;16.414;2022-10-31T01:33:59;11.60;99.90
61979;DHT22;47938;48.176;16.414;2022-10-31T01:36:30;11.60;99.90
61979;DHT22;47938;48.176;16.414;2022-10-31T01:38:58;11.60;99.90
61979;DHT22;47938;48.176;16.414;2022-10-31T01:41:27;11.60;99.90
61979;DHT22;47938;48.176;16.414;2022-10-31T01:43:57;11.60;99.90
61979;DHT22;47938;48.176;16.414;2022-10-31T01:48:50;11.50;99.90
61979;DHT22;47938;48.176;16.414;2022-10-31T01:51:17;11.50;99.90
61979;DHT22;47938;48.176;16.414;2022-10-31T01:53:45;11.50;99.90
61979;DHT22;47938;48.176;16.414;2022-10-31T01:56:13;11.50;99.90
61979;DHT22;47938;48.176;16.414;2022-10-31T01:58:41;11.50;99.90
61979;DHT22;47938;48.176;16.414;2022-10-31T02:01:07;11.50;99.90
61979;DHT22;47938;48.176;16.414;2022-10-31T02:03:33;11.60;99.90
61979;DHT22;47938;48.176;16.414;2022-10-31T02:05:59;11.60;99.90
61979;DHT22;47938;48.176;16.414;2022-10-31T02:08:32;11.60;99.90
61979;DHT22;47938;48.176;16.414;2022-10-31T02:11:00;11.60;99.90
61979;DHT22;47938;48.176;16.414;2022-10-31T02:13:28;11.60;99.90
61979;DHT22;47938;48.176;16.414;2022-10-31T02:15:56;11.60;99.90
61979;DHT22;47938;48.176;16.414;2022-10-31T02:18:23;11.60;99.90
61979;DHT22;47938;48.176;16.414;2022-10-31T02:23:46;11.60;99.90
61979;DHT22;47938;48.176;16.414;2022-10-31T02:26:45;11.60;99.90
61979;DHT22;47938;48.176;16.414;2022-10-31T02:29:35;11.60;99.90
61979;DHT22;47938;48.176;16.414;2022-10-31T02:32:30;11.70;99.90
61979;DHT22;47938;48.176;16.414;2022-10-31T02:35:39;11.70;99.90
61979;DHT22;47938;48.176;16.414;2022-10-31T02:43:34;11.70;99.90
61979;DHT22;47938;48.176;16.414;2022-10-31T02:46:13;11.70;99.90
61979;DHT22;47938;48.176;16.414;2022-10-31T02:48:41;11.70;99.90
61979;DHT22;47938;48.176;16.414;2022-10-31T02:51:08;11.70;99.90
61979;DHT22;47938;48.176;16.414;2022-10-31T02:53:36;11.70;99.90
61979;DHT22;47938;48.176;16.414;2022-10-31T02:56:13;11.70;99.90
61979;DHT22;47938;48.176;16.414;2022-10-31T02:59:02;11.80;99.90
61979;DHT22;47938;48.176;16.414;2022-10-31T03:01:56;11.70;99.90
61979;DHT22;47938;48.176;16.414;2022-10-31T03:16:26;11.70;99.90
61979;DHT22;47938;48.176;16.414;2022-10-31T03:21:34;11.70;99.90
61979;DHT22;47938;48.176;16.414;2022-10-31T03:24:01;11.70;99.90
61979;DHT22;47938;48.176;16.414;2022-10-31T03:26:28;11.70;99.90
61979;DHT22;47938;48.176;16.414;2022-10-31T03:29:00;11.70;99.90
61979;DHT22;47938;48.176;16.414;2022-10-31T03:31:30;11.70;99.90
61979;DHT22;47938;48.176;16.414;2022-10-31T03:34:00;11.70;99.90
61979;DHT22;47938;48.176;16.414;2022-10-31T03:36:26;11.70;99.90
61979;DHT22;47938;48.176;16.414;2022-10-31T03:38:53;11.70;99.90
61979;DHT22;47938;48.176;16.414;2022-10-31T03:41:23;11.70;99.90
61979;DHT22;47938;48.176;16.414;2022-10-31T03:43:59;11.80;99.90
61979;DHT22;47938;48.176;16.414;2022-10-31T03:46:26;11.70;99.90
61979;DHT22;47938;48.176;16.414;2022-10-31T03:48:52;11.70;99.90
61979;DHT22;47938;48.176;16.414;2022-10-31T03:56:51;11.70;99.90
61979;DHT22;47938;48.176;16.414;2022-10-31T03:59:35;11.70;99.90
61979;DHT22;47938;48.176;16.414;2022-10-31T04:02:06;11.70;99.90
61979;DHT22;47938;48.176;16.414;2022-10-31T04:04:33;11.70;99.90
61979;DHT22;47938;48.176;16.414;2022-10-31T04:07:01;11.70;99.90
61979;DHT22;47938;48.176;16.414;2022-10-31T04:09:29;11.70;99.90
61979;DHT22;47938;48.176;16.414;2022-10-31T04:11:56;11.70;99.90
61979;DHT22;47938;48.176;16.414;2022-10-31T04:14:26;11.70;99.90
61979;DHT22;47938;48.176;16.414;2022-10-31T04:16:53;11.70;99.90
61979;DHT22;47938;48.176;16.414;2022-10-31T04:19:19;11.60;99.90
61979;DHT22;47938;48.176;16.414;2022-10-31T04:21:45;11.60;99.90
61979;DHT22;47938;48.176;16.414;2022-10-31T04:24:11;11.60;99.90
61979;DHT22;47938;48.176;16.414;2022-10-31T04:26:37;11.60;99.90
61979;DHT22;47938;48.176;16.414;2022-10-31T04:29:02;11.60;99.90
61979;DHT22;47938;48.176;16.414;2022-10-31T04:31:28;11.60;99.90
61979;DHT22;47938;48.176;16.414;2022-10-31T04:33:54;11.60;99.90
61979;DHT22;47938;48.176;16.414;2022-10-31T04:36:19;11.60;99.90
61979;DHT22;47938;48.176;16.414;2022-10-31T04:38:45;11.60;99.90
61979;DHT22;47938;48.176;16.414;2022-10-31T04:41:10;11.60;99.90
61979;DHT22;47938;48.176;16.414;2022-10-31T04:43:36;11.60;99.90
61979;DHT22;47938;48.176;16.414;2022-10-31T04:46:02;11.50;99.90
61979;DHT22;47938;48.176;16.414;2022-10-31T04:48:28;11.60;99.90
61979;DHT22;47938;48.176;16.414;2022-10-31T04:50:59;11.60;99.90
61979;DHT22;47938;48.176;16.414;2022-10-31T04:53:24;11.50;99.90
61979;DHT22;47938;48.176;16.414;2022-10-31T04:55:50;11.50;99.90
61979;DHT22;47938;48.176;16.414;2022-10-31T04:58:15;11.50;99.90
61979;DHT22;47938;48.176;16.414;2022-10-31T05:00:41;11.50;99.90
61979;DHT22;47938;48.176;16.414;2022-10-31T05:03:07;11.50;99.90
61979;DHT22;47938;48.176;16.414;2022-10-31T05:05:32;11.50;99.90
61979;DHT22;47938;48.176;16.414;2022-10-31T05:07:58;11.50;99.90
61979;DHT22;47938;48.176;16.414;2022-10-31T05:10:26;11.50;99.90
61979;DHT22;47938;48.176;16.414;2022-10-31T05:12:57;11.50;99.90
61979;DHT22;47938;48.176;16.414;2022-10-31T05:15:25;11.50;99.90
61979;DHT22;47938;48.176;16.414;2022-10-31T05:17:52;11.50;99.90
61979;DHT22;47938;48.176;16.414;2022-10-31T05:20:19;11.50;99.90
61979;DHT22;47938;48.176;16.414;2022-10-31T05:22:46;11.50;99.90
61979;DHT22;47938;48.176;16.414;2022-10-31T05:25:13;11.50;99.90
61979;DHT22;47938;48.176;16.414;2022-10-31T05:27:44;11.50;99.90
61979;DHT22;47938;48.176;16.414;2022-10-31T05:30:11;11.50;99.90
61979;DHT22;47938;48.176;16.414;2022-10-31T05:32:43;11.50;99.90
61979;DHT22;47938;48.176;16.414;2022-10-31T05:35:11;11.50;99.90
61979;DHT22;47938;48.176;16.414;2022-10-31T05:37:37;11.50;99.90
61979;DHT22;47938;48.176;16.414;2022-10-31T05:40:04;11.50;99.90
61979;DHT22;47938;48.176;16.414;2022-10-31T05:42:30;11.50;99.90
61979;DHT22;47938;48.176;16.414;2022-10-31T05:44:56;11.50;99.90
61979;DHT22;47938;48.176;16.414;2022-10-31T05:47:22;11.50;99.90
61979;DHT22;47938;48.176;16.414;2022-10-31T05:49:47;11.50;99.90
61979;DHT22;47938;48.176;16.414;2022-10-31T05:52:14;11.50;99.90
61979;DHT22;47938;48.176;16.414;2022-10-31T05:54:39;11.50;99.90
61979;DHT22;47938;48.176;16.414;2022-10-31T05:57:05;11.50;99.90
61979;DHT22;47938;48.176;16.414;2022-10-31T05:59:30;11.50;99.90
61979;DHT22;47938;48.176;16.414;2022-10-31T06:01:56;11.50;99.90
61979;DHT22;47938;48.176;16.414;2022-10-31T06:04:22;11.50;99.90
61979;DHT22;47938;48.176;16.414;2022-10-31T06:06:47;11.50;99.90
61979;DHT22;47938;48.176;16.414;2022-10-31T06:09:13;11.50;99.90
61979;DHT22;47938;48.176;16.414;2022-10-31T06:11:38;11.60;99.90
61979;DHT22;47938;48.176;16.414;2022-10-31T06:14:05;11.60;99.90
61979;DHT22;47938;48.176;16.414;2022-10-31T06:16:30;11.60;99.90
61979;DHT22;47938;48.176;16.414;2022-10-31T06:18:56;11.60;99.90
61979;DHT22;47938;48.176;16.414;2022-10-31T06:21:22;11.60;99.90
61979;DHT22;47938;48.176;16.414;2022-10-31T06:23:47;11.60;99.90
61979;DHT22;47938;48.176;16.414;2022-10-31T06:26:13;11.60;99.90
61979;DHT22;47938;48.176;16.414;2022-10-31T06:28:39;11.60;99.90
61979;DHT22;47938;48.176;16.414;2022-10-31T06:31:05;11.60;99.90
61979;DHT22;47938;48.176;16.414;2022-10-31T06:33:32;11.60;99.90
61979;DHT22;47938;48.176;16.414;2022-10-31T06:35:59;11.60;99.90
61979;DHT22;47938;48.176;16.414;2022-10-31T06:38:26;11.70;99.90
61979;DHT22;47938;48.176;16.414;2022-10-31T06:40:52;11.70;99.90
61979;DHT22;47938;48.176;16.414;2022-10-31T06:43:18;11.70;99.90
61979;DHT22;47938;48.176;16.414;2022-10-31T06:45:44;11.70;99.90
61979;DHT22;47938;48.176;16.414;2022-10-31T06:48:09;11.70;99.90
61979;DHT22;47938;48.176;16.414;2022-10-31T06:50:35;11.80;99.90
61979;DHT22;47938;48.176;16.414;2022-10-31T06:53:00;11.80;99.90
61979;DHT22;47938;48.176;16.414;2022-10-31T06:55:26;11.80;99.90
61979;DHT22;47938;48.176;16.414;2022-10-31T06:57:53;11.90;99.90
61979;DHT22;47938;48.176;16.414;2022-10-31T07:00:19;11.90;99.90
61979;DHT22;47938;48.176;16.414;2022-10-31T07:02:59;11.90;99.90
61979;DHT22;47938;48.176;16.414;2022-10-31T07:05:26;11.90;99.90
61979;DHT22;47938;48.176;16.414;2022-10-31T07:07:56;11.90;99.90
61979;DHT22;47938;48.176;16.414;2022-10-31T07:10:24;12.00;99.90
61979;DHT22;47938;48.176;16.414;2022-10-31T07:12:57;12.00;99.90
61979;DHT22;47938;48.176;16.414;2022-10-31T07:15:27;12.10;99.90
61979;DHT22;47938;48.176;16.414;2022-10-31T07:17:53;12.10;99.90
61979;DHT22;47938;48.176;16.414;2022-10-31T07:20:19;12.10;99.90
61979;DHT22;47938;48.176;16.414;2022-10-31T07:22:45;12.10;99.90
61979;DHT22;47938;48.176;16.414;2022-10-31T07:25:11;12.10;99.90
61979;DHT22;47938;48.176;16.414;2022-10-31T07:27:41;12.20;99.90
61979;DHT22;47938;48.176;16.414;2022-10-31T07:30:08;12.20;99.90
61979;DHT22;47938;48.176;16.414;2022-10-31T07:32:39;12.20;99.90
61979;DHT22;47938;48.176;16.414;2022-10-31T07:35:06;12.30;99.90
61979;DHT22;47938;48.176;16.414;2022-10-31T07:37:32;12.20;99.90
61979;DHT22;47938;48.176;16.414;2022-10-31T07:39:57;12.20;99.90
61979;DHT22;47938;48.176;16.414;2022-10-31T07:42:23;12.10;99.90
61979;DHT22;47938;48.176;16.414;2022-10-31T07:44:48;12.10;99.90
61979;DHT22;47938;48.176;16.414;2022-10-31T07:47:14;12.10;99.90
61979;DHT22;47938;48.176;16.414;2022-10-31T07:49:39;12.10;99.90
61979;DHT22;47938;48.176;16.414;2022-10-31T07:52:05;12.10;99.90
61979;DHT22;47938;48.176;16.414;2022-10-31T07:54:31;12.10;99.90
61979;DHT22;47938;48.176;16.414;2022-10-31T07:56:56;12.10;99.90
61979;DHT22;47938;48.176;16.414;2022-10-31T07:59:22;12.10;99.90
61979;DHT22;47938;48.176;16.414;2022-10-31T08:01:47;12.10;99.90
61979;DHT22;47938;48.176;16.414;2022-10-31T08:04:13;12.10;99.90
61979;DHT22;47938;48.176;16.414;2022-10-31T08:06:39;12.20;99.90
61979;DHT22;47938;48.176;16.414;2022-10-31T08:09:04;12.20;99.90
61979;DHT22;47938;48.176;16.414;2022-10-31T08:11:30;12.20;99.90
61979;DHT22;47938;48.176;16.414;2022-10-31T08:13:55;12.30;99.90
61979;DHT22;47938;48.176;16.414;2022-10-31T08:16:21;12.30;99.90
61979;DHT22;47938;48.176;16.414;2022-10-31T08:18:46;12.30;99.90
61979;DHT22;47938;48.176;16.414;2022-10-31T08:21:12;12.30;99.90
61979;DHT22;47938;48.176;16.414;2022-10-31T08:23:38;12.30;99.90
61979;DHT22;47938;48.176;16.414;2022-10-31T08:26:03;12.30;99.90
61979;DHT22;47938;48.176;16.414;2022-10-31T08:28:29;12.40;99.90
61979;DHT22;47938;48.176;16.414;2022-10-31T08:30:54;12.40;99.90
61979;DHT22;47938;48.176;16.414;2022-10-31T08:33:22;12.40;99.90
61979;DHT22;47938;48.176;16.414;2022-10-31T08:35:48;12.40;99.90
61979;DHT22;47938;48.176;16.414;2022-10-31T08:38:13;12.40;99.90
61979;DHT22;47938;48.176;16.414;2022-10-31T08:40:39;12.50;99.90
61979;DHT22;47938;48.176;16.414;2022-10-31T08:43:15;12.40;99.90
61979;DHT22;47938;48.176;16.414;2022-10-31T08:45:42;12.50;99.90
61979;DHT22;47938;48.176;16.414;2022-10-31T08:48:13;12.50;99.90
61979;DHT22;47938;48.176;16.414;2022-10-31T08:50:40;12.60;99.90
61979;DHT22;47938;48.176;16.414;2022-10-31T08:53:14;12.60;99.90
61979;DHT22;47938;48.176;16.414;2022-10-31T08:55:40;12.60;99.90
61979;DHT22;47938;48.176;16.414;2022-10-31T08:58:10;12.70;99.90
61979;DHT22;47938;48.176;16.414;2022-10-31T09:00:36;12.70;99.90
61979;DHT22;47938;48.176;16.414;2022-10-31T09:03:04;12.70;99.90
61979;DHT22;47938;48.176;16.414;2022-10-31T09:05:30;12.70;99.90
61979;DHT22;47938;48.176;16.414;2022-10-31T09:08:00;12.80;99.90
61979;DHT22;47938;48.176;16.414;2022-10-31T09:10:27;12.80;99.90
61979;DHT22;47938;48.176;16.414;2022-10-31T09:13:00;12.70;99.90
61979;DHT22;47938;48.176;16.414;2022-10-31T09:15:26;12.70;99.90
61979;DHT22;47938;48.176;16.414;2022-10-31T09:17:52;12.70;99.90
61979;DHT22;47938;48.176;16.414;2022-10-31T09:20:18;12.80;99.90
61979;DHT22;47938;48.176;16.414;2022-10-31T09:22:44;12.80;99.90
61979;DHT22;47938;48.176;16.414;2022-10-31T09:25:10;12.80;99.90
61979;DHT22;47938;48.176;16.414;2022-10-31T09:27:35;12.70;99.90
61979;DHT22;47938;48.176;16.414;2022-10-31T09:30:01;12.70;99.90
61979;DHT22;47938;48.176;16.414;2022-10-31T09:32:27;12.70;99.90
61979;DHT22;47938;48.176;16.414;2022-10-31T09:34:53;12.70;99.90
61979;DHT22;47938;48.176;16.414;2022-10-31T09:37:18;12.70;99.90
61979;DHT22;47938;48.176;16.414;2022-10-31T09:39:44;12.60;99.90
61979;DHT22;47938;48.176;16.414;2022-10-31T09:42:44;12.70;99.90
61979;DHT22;47938;48.176;16.414;2022-10-31T09:45:21;12.60;99.90
61979;DHT22;47938;48.176;16.414;2022-10-31T09:50:48;12.60;99.90
61979;DHT22;47938;48.176;16.414;2022-10-31T09:53:57;12.70;99.90
61979;DHT22;47938;48.176;16.414;2022-10-31T09:56:25;12.60;99.90
61979;DHT22;47938;48.176;16.414;2022-10-31T09:58:57;12.70;99.90
61979;DHT22;47938;48.176;16.414;2022-10-31T10:06:50;12.80;99.90
61979;DHT22;47938;48.176;16.414;2022-10-31T10:09:25;12.70;99.90
61979;DHT22;47938;48.176;16.414;2022-10-31T10:12:09;12.80;99.90
61979;DHT22;47938;48.176;16.414;2022-10-31T10:15:34;12.70;99.90
61979;DHT22;47938;48.176;16.414;2022-10-31T10:17:56;12.80;99.90
61979;DHT22;47938;48.176;16.414;2022-10-31T10:20:31;12.80;99.90
61979;DHT22;47938;48.176;16.414;2022-10-31T10:25:41;12.70;99.90
61979;DHT22;47938;48.176;16.414;2022-10-31T10:28:31;12.70;99.90
61979;DHT22;47938;48.176;16.414;2022-10-31T10:31:06;12.60;99.90
61979;DHT22;47938;48.176;16.414;2022-10-31T10:33:36;12.70;99.90
61979;DHT22;47938;48.176;16.414;2022-10-31T10:36:17;12.70;99.90
61979;DHT22;47938;48.176;16.414;2022-10-31T10:38:58;12.70;99.90
61979;DHT22;47938;48.176;16.414;2022-10-31T10:41:30;12.70;99.90
61979;DHT22;47938;48.176;16.414;2022-10-31T10:43:56;12.70;99.90
61979;DHT22;47938;48.176;16.414;2022-10-31T10:47:00;12.80;99.90
61979;DHT22;47938;48.176;16.414;2022-10-31T10:54:49;12.90;99.90
61979;DHT22;47938;48.176;16.414;2022-10-31T11:02:51;12.90;99.90
61979;DHT22;47938;48.176;16.414;2022-10-31T11:07:57;12.90;99.90
61979;DHT22;47938;48.176;16.414;2022-10-31T11:10:23;13.00;99.90
61979;DHT22;47938;48.176;16.414;2022-10-31T11:15:31;12.80;99.90
61979;DHT22;47938;48.176;16.414;2022-10-31T11:17:57;12.90;99.90
61979;DHT22;47938;48.176;16.414;2022-10-31T11:20:30;13.00;99.90
61979;DHT22;47938;48.176;16.414;2022-10-31T11:23:05;13.00;99.90
61979;DHT22;47938;48.176;16.414;2022-10-31T11:25:31;13.10;99.90
61979;DHT22;47938;48.176;16.414;2022-10-31T11:28:09;13.10;99.90
61979;DHT22;47938;48.176;16.414;2022-10-31T11:30:50;13.10;99.90
61979;DHT22;47938;48.176;16.414;2022-10-31T11:35:48;13.00;99.90
61979;DHT22;47938;48.176;16.414;2022-10-31T11:38:20;13.00;99.90
61979;DHT22;47938;48.176;16.414;2022-10-31T11:40:58;13.00;99.90
61979;DHT22;47938;48.176;16.414;2022-10-31T11:43:25;12.90;99.90
61979;DHT22;47938;48.176;16.414;2022-10-31T11:45:50;12.90;99.90
61979;DHT22;47938;48.176;16.414;2022-10-31T11:48:20;12.90;99.90
61979;DHT22;47938;48.176;16.414;2022-10-31T11:50:52;12.90;99.90
61979;DHT22;47938;48.176;16.414;2022-10-31T11:53:28;12.80;99.90
61979;DHT22;47938;48.176;16.414;2022-10-31T11:58:31;12.90;99.90
61979;DHT22;47938;48.176;16.414;2022-10-31T12:00:57;13.00;99.90
61979;DHT22;47938;48.176;16.414;2022-10-31T12:05:58;13.00;99.90
61979;DHT22;47938;48.176;16.414;2022-10-31T12:08:32;13.00;99.90
61979;DHT22;47938;48.176;16.414;2022-10-31T12:16:26;13.10;99.90
61979;DHT22;47938;48.176;16.414;2022-10-31T12:27:03;13.10;99.90
61979;DHT22;47938;48.176;16.414;2022-10-31T12:30:01;13.20;99.90
61979;DHT22;47938;48.176;16.414;2022-10-31T12:38:04;13.20;99.90
61979;DHT22;47938;48.176;16.414;2022-10-31T12:46:00;13.10;99.90
61979;DHT22;47938;48.176;16.414;2022-10-31T12:59:33;12.90;99.90
61979;DHT22;47938;48.176;16.414;2022-10-31T13:02:21;13.00;99.90
61979;DHT22;47938;48.176;16.414;2022-10-31T13:04:53;13.00;99.90
61979;DHT22;47938;48.176;16.414;2022-10-31T13:07:36;12.90;99.90
61979;DHT22;47938;48.176;16.414;2022-10-31T13:10:18;13.00;99.90
61979;DHT22;47938;48.176;16.414;2022-10-31T13:12:46;12.90;99.90
61979;DHT22;47938;48.176;16.414;2022-10-31T13:15:19;12.90;99.90
61979;DHT22;47938;48.176;16.414;2022-10-31T13:18:11;12.90;99.90
61979;DHT22;47938;48.176;16.414;2022-10-31T13:20:40;12.80;99.90
61979;DHT22;47938;48.176;16.414;2022-10-31T13:23:37;12.80;99.90
61979;DHT22;47938;48.176;16.414;2022-10-31T13:26:13;12.80;99.90
61979;DHT22;47938;48.176;16.414;2022-10-31T13:28:46;12.70;99.90
61979;DHT22;47938;48.176;16.414;2022-10-31T13:31:12;12.70;99.90
61979;DHT22;47938;48.176;16.414;2022-10-31T13:33:39;12.60;99.90
61979;DHT22;47938;48.176;16.414;2022-10-31T13:39:25;12.70;99.90
61979;DHT22;47938;48.176;16.414;2022-10-31T13:42:03;12.70;99.90
61979;DHT22;47938;48.176;16.414;2022-10-31T13:44:32;12.80;99.90
61979;DHT22;47938;48.176;16.414;2022-10-31T13:47:00;12.70;99.90
61979;DHT22;47938;48.176;16.414;2022-10-31T13:54:37;12.80;99.90
61979;DHT22;47938;48.176;16.414;2022-10-31T13:57:07;12.70;99.90
61979;DHT22;47938;48.176;16.414;2022-10-31T13:59:37;12.80;99.90
61979;DHT22;47938;48.176;16.414;2022-10-31T14:02:15;12.70;99.90
61979;DHT22;47938;48.176;16.414;2022-10-31T14:04:53;12.70;99.90
61979;DHT22;47938;48.176;16.414;2022-10-31T14:07:22;12.70;99.90
61979;DHT22;47938;48.176;16.414;2022-10-31T14:10:25;12.70;99.90
61979;DHT22;47938;48.176;16.414;2022-10-31T14:12:52;12.60;99.90
61979;DHT22;47938;48.176;16.414;2022-10-31T14:15:19;12.70;99.90
61979;DHT22;47938;48.176;16.414;2022-10-31T14:20:41;12.70;99.90
61979;DHT22;47938;48.176;16.414;2022-10-31T14:23:36;12.70;99.90
61979;DHT22;47938;48.176;16.414;2022-10-31T14:28:53;12.60;99.90
61979;DHT22;47938;48.176;16.414;2022-10-31T14:31:32;12.60;99.90
61979;DHT22;47938;48.176;16.414;2022-10-31T14:36:43;12.60;99.90
61979;DHT22;47938;48.176;16.414;2022-10-31T14:39:23;12.60;99.90
61979;DHT22;47938;48.176;16.414;2022-10-31T14:52:52;12.50;99.90
61979;DHT22;47938;48.176;16.414;2022-10-31T14:55:18;12.60;99.90
61979;DHT22;47938;48.176;16.414;2022-10-31T14:57:54;12.60;99.90
61979;DHT22;47938;48.176;16.414;2022-10-31T15:00:22;12.50;99.90
61979;DHT22;47938;48.176;16.414;2022-10-31T15:06:04;12.50;99.90
61979;DHT22;47938;48.176;16.414;2022-10-31T15:08:40;12.60;99.90
61979;DHT22;47938;48.176;16.414;2022-10-31T15:11:11;12.50;99.90
61979;DHT22;47938;48.176;16.414;2022-10-31T15:13:44;12.50;99.90
61979;DHT22;47938;48.176;16.414;2022-10-31T15:16:12;12.50;99.90
61979;DHT22;47938;48.176;16.414;2022-10-31T15:18:48;12.50;99.90
61979;DHT22;47938;48.176;16.414;2022-10-31T15:21:16;12.50;99.90
61979;DHT22;47938;48.176;16.414;2022-10-31T15:23:42;12.40;99.90
61979;DHT22;47938;48.176;16.414;2022-10-31T15:26:15;12.50;99.90
61979;DHT22;47938;48.176;16.414;2022-10-31T15:28:42;12.40;99.90
61979;DHT22;47938;48.176;16.414;2022-10-31T15:31:15;12.40;99.90
61979;DHT22;47938;48.176;16.414;2022-10-31T15:33:42;12.40;99.90
61979;DHT22;47938;48.176;16.414;2022-10-31T15:36:23;12.40;99.90
61979;DHT22;47938;48.176;16.414;2022-10-31T15:38:49;12.40;99.90
61979;DHT22;47938;48.176;16.414;2022-10-31T15:41:42;12.40;99.90
61979;DHT22;47938;48.176;16.414;2022-10-31T15:44:16;12.40;99.90
61979;DHT22;47938;48.176;16.414;2022-10-31T15:46:43;12.40;99.90
61979;DHT22;47938;48.176;16.414;2022-10-31T15:49:26;12.30;99.90
61979;DHT22;47938;48.176;16.414;2022-10-31T15:51:53;12.30;99.90
61979;DHT22;47938;48.176;16.414;2022-10-31T15:54:19;12.30;99.90
61979;DHT22;47938;48.176;16.414;2022-10-31T15:56:44;12.30;99.90
61979;DHT22;47938;48.176;16.414;2022-10-31T15:59:22;12.30;99.90
61979;DHT22;47938;48.176;16.414;2022-10-31T16:02:02;12.30;99.90
61979;DHT22;47938;48.176;16.414;2022-10-31T16:04:28;12.30;99.90
61979;DHT22;47938;48.176;16.414;2022-10-31T16:07:00;12.30;99.90
61979;DHT22;47938;48.176;16.414;2022-10-31T16:09:25;12.20;99.90
61979;DHT22;47938;48.176;16.414;2022-10-31T16:11:51;12.20;99.90
61979;DHT22;47938;48.176;16.414;2022-10-31T16:14:20;12.10;99.90
61979;DHT22;47938;48.176;16.414;2022-10-31T16:16:53;12.10;99.90
61979;DHT22;47938;48.176;16.414;2022-10-31T16:19:23;12.10;99.90
61979;DHT22;47938;48.176;16.414;2022-10-31T16:21:55;12.10;99.90
61979;DHT22;47938;48.176;16.414;2022-10-31T16:24:31;12.10;99.90
61979;DHT22;47938;48.176;16.414;2022-10-31T16:27:06;12.10;99.90
61979;DHT22;47938;48.176;16.414;2022-10-31T16:29:45;12.10;99.90
61979;DHT22;47938;48.176;16.414;2022-10-31T16:32:28;12.10;99.90
61979;DHT22;47938;48.176;16.414;2022-10-31T16:37:27;12.10;99.90
61979;DHT22;47938;48.176;16.414;2022-10-31T16:39:53;12.00;99.90
61979;DHT22;47938;48.176;16.414;2022-10-31T16:42:18;11.90;99.90
61979;DHT22;47938;48.176;16.414;2022-10-31T16:44:45;11.80;99.90
61979;DHT22;47938;48.176;16.414;2022-10-31T16:47:16;11.90;99.90
61979;DHT22;47938;48.176;16.414;2022-10-31T16:49:43;11.90;99.90
61979;DHT22;47938;48.176;16.414;2022-10-31T16:52:09;11.80;99.90
61979;DHT22;47938;48.176;16.414;2022-10-31T16:54:35;11.80;99.90
61979;DHT22;47938;48.176;16.414;2022-10-31T16:57:02;11.80;99.90
61979;DHT22;47938;48.176;16.414;2022-10-31T16:59:29;11.80;99.90
61979;DHT22;47938;48.176;16.414;2022-10-31T17:01:55;11.70;99.90
61979;DHT22;47938;48.176;16.414;2022-10-31T17:04:21;11.70;99.90
61979;DHT22;47938;48.176;16.414;2022-10-31T17:06:47;11.80;99.90
61979;DHT22;47938;48.176;16.414;2022-10-31T17:09:12;11.70;99.90
61979;DHT22;47938;48.176;16.414;2022-10-31T17:11:44;11.80;99.90
61979;DHT22;47938;48.176;16.414;2022-10-31T17:14:10;11.70;99.90
61979;DHT22;47938;48.176;16.414;2022-10-31T17:16:36;11.70;99.90
61979;DHT22;47938;48.176;16.414;2022-10-31T17:19:02;11.70;99.90
61979;DHT22;47938;48.176;16.414;2022-10-31T17:21:27;11.70;99.90
61979;DHT22;47938;48.176;16.414;2022-10-31T17:23:53;11.70;99.90
61979;DHT22;47938;48.176;16.414;2022-10-31T17:26:19;11.70;99.90
61979;DHT22;47938;48.176;16.414;2022-10-31T17:28:45;11.70;99.90
61979;DHT22;47938;48.176;16.414;2022-10-31T17:31:28;11.70;99.90
61979;DHT22;47938;48.176;16.414;2022-10-31T17:33:54;11.70;99.90
61979;DHT22;47938;48.176;16.414;2022-10-31T17:36:20;11.70;99.90
61979;DHT22;47938;48.176;16.414;2022-10-31T17:38:45;11.70;99.90
61979;DHT22;47938;48.176;16.414;2022-10-31T17:41:11;11.60;99.90
61979;DHT22;47938;48.176;16.414;2022-10-31T17:43:37;11.70;99.90
61979;DHT22;47938;48.176;16.414;2022-10-31T17:46:03;11.70;99.90